Terminal Aerodrome Forecast
Issued by NWS

Home | Current Version | Previous Version | Text Only | Print | Product List | Glossary On
Versions: 1 2 3 4 5 6 7 8 9 10 11 12 13 14 15 16 17 18 19 20 21 22 23 24 25 26 27 28 29 30 31 32 33 34 35 36 37 38 39 40 41 42 43 44 45 46 47 48
622
FTUS41 KRNK 012321
TAFBCB
TAF
KBCB 012321Z 0200/0224 17006KT P6SM VCSH BKN045 BKN080
      TEMPO 0201/0204 3SM -TSRA BR OVC040CB
     FM020400 22004KT P6SM VCSH BKN035
     FM020600 22003KT 4SM BR SCT015 BKN150
      TEMPO 0209/0212 1SM BR BKN015
     FM021300 24005KT P6SM SCT025 BKN100
     FM022000 26008KT P6SM -SHRA VCTS BKN045CB=

USA.gov is the U.S. government's official web portal to all federal, state and local government web resources and services.